createdAt,value
2023-01-01T00:00:34.253Z,13.74
2023-01-01T00:05:38.441Z,13.71
2023-01-01T00:10:39.820Z,13.60
2023-01-01T00:15:41.453Z,13.63
2023-01-01T00:20:43.013Z,13.61
2023-01-01T00:25:44.875Z,13.54
2023-01-01T00:30:46.260Z,13.52
2023-01-01T00:35:47.995Z,13.42
2023-01-01T00:40:49.393Z,13.44
2023-01-01T00:45:53.449Z,13.37
2023-01-01T00:50:54.845Z,13.30
2023-01-01T00:55:56.548Z,13.28
2023-01-01T01:00:59.136Z,13.21
2023-01-01T01:06:10.979Z,13.20
2023-01-01T01:11:16.374Z,13.15
2023-01-01T01:16:22.360Z,13.14
2023-01-01T01:21:24.482Z,13.17
2023-01-01T01:26:28.879Z,13.09
2023-01-01T01:31:31.820Z,13.09
2023-01-01T01:36:33.244Z,13.11
2023-01-01T01:41:34.567Z,13.04
2023-01-01T01:46:42.844Z,12.98
2023-01-01T01:51:45.683Z,13.01
2023-01-01T01:56:57.505Z,12.98
2023-01-01T02:01:59.648Z,13.02
2023-01-01T02:07:01.136Z,12.98
2023-01-01T02:12:02.515Z,12.99
2023-01-01T02:17:09.931Z,12.91
2023-01-01T02:22:46.840Z,12.80
2023-01-01T02:28:09.607Z,12.71
2023-01-01T02:33:19.911Z,12.62
2023-01-01T02:38:34.114Z,12.61
2023-01-01T02:43:35.731Z,12.52
2023-01-01T02:48:47.837Z,12.60
2023-01-01T02:54:11.283Z,12.55
2023-01-01T02:59:50.392Z,12.52
2023-01-01T03:05:29.596Z,12.53
2023-01-01T03:11:14.457Z,12.54
2023-01-01T03:16:39.089Z,12.51
2023-01-01T03:21:58.068Z,12.45
2023-01-01T03:27:04.687Z,12.42
2023-01-01T03:32:08.779Z,12.32
2023-01-01T03:37:15.878Z,12.31
2023-01-01T03:42:35.217Z,12.32
2023-01-01T03:47:37.256Z,12.35
2023-01-01T03:53:19.128Z,12.36
2023-01-01T03:58:39.710Z,12.38
2023-01-01T04:03:42.692Z,12.35
2023-01-01T04:08:46.265Z,12.38
2023-01-01T04:13:48.122Z,12.41
2023-01-01T04:18:49.558Z,12.34
2023-01-01T04:23:52.143Z,12.35
2023-01-01T04:28:53.508Z,12.34
2023-01-01T04:33:54.938Z,12.36
2023-01-01T04:38:56.305Z,12.38
2023-01-01T04:43:57.733Z,12.37
2023-01-01T04:48:59.227Z,12.34
2023-01-01T04:54:02.201Z,12.39
2023-01-01T04:59:03.767Z,12.34
2023-01-01T05:04:05.155Z,12.31
2023-01-01T05:09:06.606Z,12.30
2023-01-01T05:14:11.270Z,12.31
2023-01-01T05:19:12.722Z,12.27
2023-01-01T05:24:14.076Z,12.23
2023-01-01T05:29:17.551Z,12.18
2023-01-01T05:34:19.597Z,12.23
2023-01-01T05:39:20.955Z,12.20
2023-01-01T05:44:22.418Z,12.25
2023-01-01T05:49:23.763Z,12.18
2023-01-01T05:54:25.097Z,12.20
2023-01-01T05:59:26.487Z,12.16
2023-01-01T06:04:28.049Z,12.13
2023-01-01T06:09:29.404Z,12.14
2023-01-01T06:14:31.410Z,12.13
2023-01-01T06:19:32.737Z,12.08
2023-01-01T06:24:38.930Z,12.12
2023-01-01T06:29:40.798Z,12.14
2023-01-01T06:34:42.274Z,12.14
2023-01-01T06:39:43.988Z,12.14
2023-01-01T06:44:45.340Z,12.15
2023-01-01T06:49:46.685Z,12.17
2023-01-01T06:54:48.545Z,12.15
2023-01-01T06:59:51.030Z,12.18
2023-01-01T07:04:52.394Z,12.14
2023-01-01T07:09:53.745Z,12.10
2023-01-01T07:14:58.045Z,12.09
2023-01-01T07:19:59.503Z,12.02
2023-01-01T07:25:00.837Z,12.03
2023-01-01T07:30:02.385Z,12.06
2023-01-01T07:35:04.157Z,11.96
2023-01-01T07:40:06.131Z,12.07
2023-01-01T07:45:08.171Z,11.96
2023-01-01T07:50:19.082Z,12.17
2023-01-01T07:55:21.320Z,12.24
2023-01-01T08:00:22.795Z,12.28
2023-01-01T08:05:27.136Z,12.33
2023-01-01T08:10:28.707Z,12.32
2023-01-01T08:15:30.371Z,12.37
2023-01-01T08:20:33.568Z,12.38
2023-01-01T08:25:35.166Z,12.49
2023-01-01T08:30:36.717Z,12.57
2023-01-01T08:35:41.659Z,12.62
2023-01-01T08:40:43.262Z,12.67
2023-01-01T08:45:45.592Z,12.73
2023-01-01T08:50:54.619Z,12.86
2023-01-01T08:56:04.148Z,13.00
2023-01-01T09:01:07.292Z,13.10
2023-01-01T09:06:08.947Z,13.16
2023-01-01T09:11:22.731Z,13.20
2023-01-01T09:16:24.194Z,13.05
2023-01-01T09:21:25.572Z,13.15
2023-01-01T09:26:27.057Z,13.23
2023-01-01T09:31:28.465Z,13.26
2023-01-01T09:36:32.131Z,13.39
2023-01-01T09:41:55.088Z,13.51
2023-01-01T09:47:02.324Z,13.44
2023-01-01T09:52:05.577Z,13.56
2023-01-01T09:57:16.489Z,13.65
2023-01-01T10:02:58.810Z,13.90
2023-01-01T10:08:31.881Z,14.15
2023-01-01T10:13:45.166Z,14.19
2023-01-01T10:18:50.482Z,14.10
2023-01-01T10:24:15.903Z,14.27
2023-01-01T10:29:24.557Z,14.55
2023-01-01T10:34:29.152Z,14.45
2023-01-01T10:39:30.670Z,14.49
2023-01-01T10:44:35.917Z,14.41
2023-01-01T10:49:58.176Z,14.39
2023-01-01T10:55:00.270Z,14.29
2023-01-01T11:00:24.014Z,14.29
2023-01-01T11:05:25.677Z,14.38
2023-01-01T11:10:28.952Z,14.53
2023-01-01T11:15:38.576Z,14.77
2023-01-01T11:20:40.940Z,15.08
2023-01-01T11:26:16.463Z,15.25
2023-01-01T11:31:19.955Z,15.43
2023-01-01T11:36:28.154Z,15.41
2023-01-01T11:41:41.264Z,15.97
2023-01-01T11:46:46.317Z,16.99
2023-01-01T11:51:47.713Z,16.66
2023-01-01T11:56:58.230Z,16.07
2023-01-01T12:02:04.203Z,15.63
2023-01-01T12:07:14.900Z,15.38
2023-01-01T12:12:39.776Z,15.31
2023-01-01T12:17:47.117Z,15.19
2023-01-01T12:22:49.033Z,15.17
2023-01-01T12:28:31.916Z,15.33
2023-01-01T12:33:45.406Z,15.62
2023-01-01T12:39:37.954Z,15.52
2023-01-01T12:45:17.079Z,15.51
2023-01-01T12:50:37.130Z,15.34
2023-01-01T12:55:56.641Z,15.45
2023-01-01T13:01:03.778Z,15.48
2023-01-01T13:06:07.131Z,15.65
2023-01-01T13:11:09.707Z,15.82
2023-01-01T13:16:13.900Z,16.02
2023-01-01T13:21:18.086Z,15.99
2023-01-01T13:26:22.737Z,15.66
2023-01-01T13:31:39.925Z,15.36
2023-01-01T13:36:42.151Z,15.30
2023-01-01T13:41:45.767Z,15.26
2023-01-01T13:47:15.274Z,15.16
2023-01-01T13:52:44.332Z,15.10
2023-01-01T13:58:08.475Z,15.10
2023-01-01T14:03:17.041Z,15.00
2023-01-01T14:08:36.234Z,14.94
2023-01-01T14:13:41.269Z,15.02
2023-01-01T14:18:56.551Z,15.01
2023-01-01T14:24:01.620Z,15.03
2023-01-01T14:29:07.329Z,15.00
2023-01-01T14:34:15.887Z,15.03
2023-01-01T14:39:43.833Z,15.02
2023-01-01T14:44:49.473Z,14.95
2023-01-01T14:49:52.257Z,14.87
2023-01-01T14:54:56.243Z,14.95
2023-01-01T14:59:58.059Z,14.91
2023-01-01T15:05:27.710Z,14.85
2023-01-01T15:10:34.825Z,14.81
2023-01-01T15:15:44.643Z,14.73
2023-01-01T15:20:53.242Z,14.63
2023-01-01T15:25:55.618Z,14.54
2023-01-01T15:30:57.833Z,14.55
2023-01-01T15:36:03.050Z,14.57
2023-01-01T15:41:44.071Z,14.53
2023-01-01T15:46:48.019Z,14.52
2023-01-01T15:51:49.709Z,14.53
2023-01-01T15:56:51.456Z,14.57
2023-01-01T16:02:04.526Z,14.58
2023-01-01T16:07:14.765Z,14.62
2023-01-01T16:12:16.364Z,14.64
2023-01-01T16:17:20.442Z,14.65
2023-01-01T16:22:21.838Z,14.68
2023-01-01T16:27:23.187Z,14.70
2023-01-01T16:32:24.640Z,14.68
2023-01-01T16:37:25.994Z,14.73
2023-01-01T16:42:27.327Z,14.68
2023-01-01T16:47:28.681Z,14.66
2023-01-01T16:52:33.718Z,14.58
2023-01-01T16:57:36.635Z,14.60
2023-01-01T17:02:38.295Z,14.59
2023-01-01T17:07:39.768Z,14.55
2023-01-01T17:12:41.071Z,14.56
2023-01-01T17:17:42.378Z,14.57
2023-01-01T17:22:43.962Z,14.57
2023-01-01T17:27:45.632Z,14.53
2023-01-01T17:32:47.007Z,14.50
2023-01-01T17:37:48.688Z,14.52
2023-01-01T17:42:50.074Z,14.50
2023-01-01T17:47:51.395Z,14.55
2023-01-01T17:52:52.799Z,14.53
2023-01-01T17:57:54.161Z,14.51
2023-01-01T18:02:58.174Z,14.49
2023-01-01T18:07:59.668Z,14.44
2023-01-01T18:13:01.273Z,14.43
2023-01-01T18:18:02.686Z,14.40
2023-01-01T18:23:04.392Z,14.40
2023-01-01T18:28:07.887Z,14.42
2023-01-01T18:33:09.300Z,14.43
2023-01-01T18:38:14.012Z,14.45
2023-01-01T18:43:23.592Z,14.48
2023-01-01T18:48:24.930Z,14.52
2023-01-01T18:53:27.190Z,14.45
2023-01-01T18:58:32.495Z,14.43
2023-01-01T19:03:40.802Z,14.44
2023-01-01T19:08:42.741Z,14.45
2023-01-01T19:13:44.589Z,14.33
2023-01-01T19:18:46.228Z,14.41
2023-01-01T19:23:56.076Z,14.38
2023-01-01T19:29:02.049Z,14.36
2023-01-01T19:34:03.530Z,14.41
2023-01-01T19:39:05.459Z,14.37
2023-01-01T19:44:10.302Z,14.44
2023-01-01T19:49:11.979Z,14.45
2023-01-01T19:54:15.298Z,14.52
2023-01-01T19:59:19.235Z,14.50
2023-01-01T20:04:21.689Z,14.45
2023-01-01T20:09:24.495Z,14.47
2023-01-01T20:14:26.309Z,14.52
2023-01-01T20:19:27.662Z,14.49
2023-01-01T20:24:30.235Z,14.52
2023-01-01T20:29:32.238Z,14.48
2023-01-01T20:34:37.851Z,14.52
2023-01-01T20:39:41.954Z,14.47
2023-01-01T20:44:44.224Z,14.47
2023-01-01T20:49:45.698Z,14.41
2023-01-01T20:54:48.649Z,14.39
2023-01-01T20:59:50.428Z,14.40
2023-01-01T21:04:53.634Z,14.39
2023-01-01T21:09:55.051Z,14.47
2023-01-01T21:14:58.319Z,14.50
2023-01-01T21:20:00.257Z,14.45
2023-01-01T21:25:49.341Z,14.43
2023-01-01T21:30:47.781Z,14.44
2023-01-01T21:35:49.565Z,14.37
2023-01-01T21:40:52.167Z,14.33
2023-01-01T21:45:56.928Z,14.35
2023-01-01T21:51:00.032Z,14.27
2023-01-01T21:56:23.050Z,14.23
2023-01-01T22:01:37.430Z,14.18
2023-01-01T22:06:40.881Z,14.10
2023-01-01T22:11:43.610Z,14.08
2023-01-01T22:16:50.476Z,14.08
2023-01-01T22:21:53.123Z,14.08
2023-01-01T22:26:56.828Z,14.06
2023-01-01T22:32:12.772Z,14.10
2023-01-01T22:37:19.383Z,14.10
2023-01-01T22:42:22.270Z,14.11
2023-01-01T22:47:34.380Z,14.11
2023-01-01T22:52:35.830Z,14.06
2023-01-01T22:57:37.582Z,14.11
2023-01-01T23:02:40.118Z,14.15
2023-01-01T23:07:42.801Z,14.13
2023-01-01T23:12:44.249Z,14.14
2023-01-01T23:17:45.622Z,14.11
2023-01-01T23:22:52.204Z,13.99
2023-01-01T23:27:54.861Z,13.93
2023-01-01T23:32:56.339Z,13.92
2023-01-01T23:37:59.610Z,13.91
2023-01-01T23:43:01.053Z,13.84
2023-01-01T23:48:03.403Z,13.82
2023-01-01T23:53:04.891Z,13.84
2023-01-01T23:58:06.372Z,13.82
